createdAt,value
2023-02-26T00:00:11.542Z,1.43
2023-02-26T00:01:11.535Z,1.40
2023-02-26T00:02:11.573Z,1.32
2023-02-26T00:03:11.643Z,1.37
2023-02-26T00:04:11.541Z,1.36
2023-02-26T00:05:11.512Z,1.34
2023-02-26T00:06:11.474Z,1.46
2023-02-26T00:07:11.481Z,1.46
2023-02-26T00:08:11.464Z,1.39
2023-02-26T00:09:11.468Z,1.42
2023-02-26T00:10:11.435Z,1.34
2023-02-26T00:11:11.445Z,1.34
2023-02-26T00:12:11.408Z,1.39
2023-02-26T00:13:11.400Z,1.36
2023-02-26T00:14:11.393Z,1.36
2023-02-26T00:15:11.389Z,1.44
2023-02-26T00:16:11.366Z,1.43
2023-02-26T00:17:11.640Z,1.40
2023-02-26T00:18:11.340Z,1.51
2023-02-26T00:19:11.381Z,1.52
2023-02-26T00:20:11.329Z,1.54
2023-02-26T00:21:11.322Z,1.52
2023-02-26T00:22:11.310Z,1.57
2023-02-26T00:23:11.308Z,1.60
2023-02-26T00:24:11.296Z,1.69
2023-02-26T00:25:11.268Z,1.64
2023-02-26T00:26:11.249Z,1.65
2023-02-26T00:27:11.243Z,1.71
2023-02-26T00:28:11.235Z,1.87
2023-02-26T00:29:11.223Z,1.79
2023-02-26T00:30:11.221Z,1.75
2023-02-26T00:31:11.332Z,1.78
2023-02-26T00:32:11.330Z,1.90
2023-02-26T00:33:11.182Z,1.80
2023-02-26T00:34:11.162Z,1.76
2023-02-26T00:35:11.204Z,1.79
2023-02-26T00:36:11.139Z,1.87
2023-02-26T00:37:11.149Z,1.89
2023-02-26T00:38:11.130Z,1.91
2023-02-26T00:39:11.125Z,1.85
2023-02-26T00:40:11.130Z,1.94
2023-02-26T00:41:11.135Z,1.97
2023-02-26T00:42:11.087Z,1.83
2023-02-26T00:43:11.067Z,1.90
2023-02-26T00:44:11.055Z,1.93
2023-02-26T00:45:11.059Z,2.02
2023-02-26T00:46:11.073Z,1.97
2023-02-26T00:47:11.048Z,1.89
2023-02-26T00:48:11.008Z,2.01
2023-02-26T00:49:11.023Z,1.99
2023-02-26T00:50:11.000Z,2.01
2023-02-26T00:51:11.025Z,1.99
2023-02-26T00:52:10.964Z,2.06
2023-02-26T00:53:10.955Z,1.93
2023-02-26T00:54:10.944Z,1.99
2023-02-26T00:55:10.950Z,2.08
2023-02-26T00:56:10.936Z,2.02
2023-02-26T00:57:10.929Z,2.04
2023-02-26T00:58:10.909Z,2.08
2023-02-26T00:59:10.897Z,2.01
2023-02-26T01:00:10.881Z,2.02
2023-02-26T01:01:10.900Z,2.08
2023-02-26T01:02:10.864Z,2.10
2023-02-26T01:03:10.858Z,2.10
2023-02-26T01:04:10.853Z,1.99
2023-02-26T01:05:10.822Z,1.98
2023-02-26T01:06:10.820Z,2.04
2023-02-26T01:07:10.850Z,2.10
2023-02-26T01:08:10.806Z,2.08
2023-02-26T01:09:10.831Z,2.01
2023-02-26T01:10:10.759Z,2.08
2023-02-26T01:11:10.766Z,1.99
2023-02-26T01:12:11.140Z,1.93
2023-02-26T01:13:10.741Z,1.97
2023-02-26T01:14:10.744Z,1.98
2023-02-26T01:15:10.717Z,1.89
2023-02-26T01:16:10.816Z,1.79
2023-02-26T01:17:10.708Z,1.83
2023-02-26T01:18:10.823Z,1.91
2023-02-26T01:19:10.676Z,1.94
2023-02-26T01:20:10.649Z,1.85
2023-02-26T01:21:10.655Z,1.93
2023-02-26T01:22:10.640Z,1.83
2023-02-26T01:23:10.657Z,1.80
2023-02-26T01:24:10.616Z,1.83
2023-02-26T01:25:10.614Z,1.82
2023-02-26T01:26:10.594Z,1.94
2023-02-26T01:27:10.575Z,1.91
2023-02-26T01:28:10.588Z,1.91
2023-02-26T01:29:10.553Z,1.83
2023-02-26T01:30:10.536Z,1.85
2023-02-26T01:31:10.634Z,1.82
2023-02-26T01:32:10.697Z,1.89
2023-02-26T01:33:10.536Z,1.83
2023-02-26T01:34:10.494Z,1.72
2023-02-26T01:35:10.486Z,1.83
2023-02-26T01:36:10.476Z,1.80
2023-02-26T01:37:10.478Z,1.82
2023-02-26T01:38:10.472Z,1.75
2023-02-26T01:39:10.504Z,1.68
2023-02-26T01:40:10.444Z,1.64
2023-02-26T01:41:10.419Z,1.65
2023-02-26T01:42:10.421Z,1.62
2023-02-26T01:43:10.425Z,1.62
2023-02-26T01:44:10.416Z,1.71
2023-02-26T01:45:10.377Z,1.54
2023-02-26T01:46:10.377Z,1.58
2023-02-26T01:47:10.354Z,1.51
2023-02-26T01:48:10.343Z,1.44
2023-02-26T01:49:10.359Z,1.46
2023-02-26T01:50:10.316Z,1.44
2023-02-26T01:51:10.314Z,1.43
2023-02-26T01:52:10.316Z,1.39
2023-02-26T01:53:10.300Z,1.24
2023-02-26T01:54:10.293Z,1.25
2023-02-26T01:55:10.291Z,1.22
2023-02-26T01:56:10.249Z,1.28
2023-02-26T01:57:10.262Z,1.16
2023-02-26T01:58:10.242Z,1.10
2023-02-26T01:59:10.236Z,1.19
2023-02-26T02:00:10.223Z,1.07
2023-02-26T02:01:10.199Z,1.15
2023-02-26T02:02:10.289Z,1.08
2023-02-26T02:03:10.356Z,1.04
2023-02-26T02:04:10.189Z,1.16
2023-02-26T02:05:10.180Z,1.06
2023-02-26T02:06:10.142Z,0.88
2023-02-26T02:07:10.132Z,1.12
2023-02-26T02:08:10.135Z,1.04
2023-02-26T02:09:10.142Z,1.07
2023-02-26T02:10:10.097Z,1.00
2023-02-26T02:11:10.113Z,0.96
2023-02-26T02:12:10.088Z,0.94
2023-02-26T02:13:10.067Z,0.89
2023-02-26T02:14:10.066Z,0.88
2023-02-26T02:15:10.045Z,0.89
2023-02-26T02:16:10.063Z,0.92
2023-02-26T02:17:10.032Z,0.90
2023-02-26T02:18:10.017Z,0.92
2023-02-26T02:19:10.006Z,0.89
2023-02-26T02:20:10.015Z,0.96
2023-02-26T02:21:09.971Z,0.90
2023-02-26T02:22:09.959Z,0.90
2023-02-26T02:23:09.974Z,0.86
2023-02-26T02:24:09.945Z,0.90
2023-02-26T02:25:09.941Z,0.86
2023-02-26T02:26:09.942Z,0.85
2023-02-26T02:27:09.929Z,0.79
2023-02-26T02:28:09.905Z,0.86
2023-02-26T02:29:09.892Z,0.88
2023-02-26T02:30:09.868Z,0.82
2023-02-26T02:31:09.983Z,0.94
2023-02-26T02:32:10.126Z,0.90
2023-02-26T02:33:09.852Z,0.88
2023-02-26T02:34:09.836Z,0.85
2023-02-26T02:35:09.829Z,0.94
2023-02-26T02:36:09.798Z,0.92
2023-02-26T02:37:09.805Z,0.86
2023-02-26T02:38:09.792Z,0.92
2023-02-26T02:39:09.766Z,0.88
2023-02-26T02:40:09.770Z,0.82
2023-02-26T02:41:09.745Z,0.96
2023-02-26T02:42:09.755Z,0.96
2023-02-26T02:43:09.764Z,0.96
2023-02-26T02:44:09.712Z,0.96
2023-02-26T02:45:09.700Z,0.94
2023-02-26T02:46:09.757Z,1.00
2023-02-26T02:47:09.693Z,0.96
2023-02-26T02:48:09.680Z,0.96
2023-02-26T02:49:09.658Z,0.79
2023-02-26T02:50:09.644Z,0.88
2023-02-26T02:51:09.636Z,0.86
2023-02-26T02:52:09.636Z,0.90
2023-02-26T02:53:09.613Z,0.96
2023-02-26T02:54:09.613Z,0.97
2023-02-26T02:55:09.606Z,0.97
2023-02-26T02:56:09.581Z,0.86
2023-02-26T02:57:09.604Z,0.89
2023-02-26T02:58:09.554Z,0.82
2023-02-26T02:59:09.582Z,0.92
2023-02-26T03:00:09.538Z,0.90
2023-02-26T03:01:09.607Z,0.80
2023-02-26T03:02:09.536Z,0.82
2023-02-26T03:03:09.506Z,0.92
2023-02-26T03:04:09.491Z,0.85
2023-02-26T03:05:09.481Z,0.83
2023-02-26T03:06:09.479Z,0.82
2023-02-26T03:07:09.474Z,0.83
2023-02-26T03:08:09.443Z,0.88
2023-02-26T03:09:09.453Z,0.86
2023-02-26T03:10:09.422Z,0.79
2023-02-26T03:11:09.420Z,0.90
2023-02-26T03:12:09.410Z,0.86
2023-02-26T03:13:09.422Z,0.82
2023-02-26T03:14:09.390Z,0.76
2023-02-26T03:15:09.405Z,0.86
2023-02-26T03:16:09.416Z,0.85
2023-02-26T03:17:09.349Z,0.75
2023-02-26T03:18:09.348Z,0.86
2023-02-26T03:19:09.325Z,0.83
2023-02-26T03:20:09.325Z,0.71
2023-02-26T03:21:09.321Z,0.75
2023-02-26T03:22:09.295Z,0.80
2023-02-26T03:23:09.297Z,0.64
2023-02-26T03:24:09.268Z,0.71
2023-02-26T03:25:09.261Z,0.71
2023-02-26T03:26:11.573Z,0.78
2023-02-26T03:27:09.252Z,0.68
2023-02-26T03:28:09.243Z,0.61
2023-02-26T03:29:09.228Z,0.75
2023-02-26T03:30:09.227Z,0.64
2023-02-26T03:31:09.217Z,0.65
2023-02-26T03:32:09.288Z,0.58
2023-02-26T03:33:09.189Z,0.67
2023-02-26T03:34:09.158Z,0.60
2023-02-26T03:35:09.167Z,0.62
2023-02-26T03:36:09.136Z,0.62
2023-02-26T03:37:09.141Z,0.53
2023-02-26T03:38:09.160Z,0.51
2023-02-26T03:39:09.107Z,0.49
2023-02-26T03:40:09.107Z,0.46
2023-02-26T03:41:09.086Z,0.45
2023-02-26T03:42:09.089Z,0.58
2023-02-26T03:43:09.075Z,0.58
2023-02-26T03:44:09.054Z,0.42
2023-02-26T03:45:09.041Z,0.51
2023-02-26T03:46:09.054Z,0.45
2023-02-26T03:47:09.037Z,0.48
2023-02-26T03:48:09.038Z,0.48
2023-02-26T03:49:09.038Z,0.42
2023-02-26T03:50:09.005Z,0.46
2023-02-26T03:51:08.996Z,0.48
2023-02-26T03:52:09.019Z,0.45
2023-02-26T03:53:08.992Z,0.41
2023-02-26T03:54:08.961Z,0.36
2023-02-26T03:55:08.945Z,0.45
2023-02-26T03:56:08.936Z,0.52
2023-02-26T03:57:08.906Z,0.38
2023-02-26T03:58:08.917Z,0.41
2023-02-26T03:59:08.882Z,0.39
2023-02-26T04:00:08.881Z,0.39
2023-02-26T04:01:08.878Z,0.36
2023-02-26T04:02:08.898Z,0.38
2023-02-26T04:03:08.880Z,0.38
2023-02-26T04:04:08.865Z,0.38
2023-02-26T04:05:08.812Z,0.31
2023-02-26T04:06:08.819Z,0.33
2023-02-26T04:07:08.807Z,0.34
2023-02-26T04:08:08.811Z,0.28
2023-02-26T04:09:08.782Z,0.33
2023-02-26T04:10:08.781Z,0.23
2023-02-26T04:11:08.762Z,0.25
2023-02-26T04:12:08.771Z,0.27
2023-02-26T04:13:08.758Z,0.36
2023-02-26T04:14:08.723Z,0.34
2023-02-26T04:15:08.715Z,0.34
2023-02-26T04:16:08.712Z,0.30
2023-02-26T04:17:08.679Z,0.24
2023-02-26T04:18:08.694Z,0.30
2023-02-26T04:19:08.695Z,0.30
2023-02-26T04:20:08.668Z,0.28
2023-02-26T04:21:08.655Z,0.21
2023-02-26T04:22:08.636Z,0.34
2023-02-26T04:23:08.626Z,0.30
2023-02-26T04:24:08.625Z,0.25
2023-02-26T04:25:08.605Z,0.24
2023-02-26T04:26:08.598Z,0.28
2023-02-26T04:27:08.566Z,0.23
2023-02-26T04:28:08.555Z,0.18
2023-02-26T04:29:08.552Z,0.23
2023-02-26T04:30:08.559Z,0.25
2023-02-26T04:31:09.636Z,0.28
2023-02-26T04:32:08.722Z,0.16
2023-02-26T04:33:08.522Z,0.23
2023-02-26T04:34:08.531Z,0.20
2023-02-26T04:35:08.515Z,0.13
2023-02-26T04:36:08.480Z,0.16
2023-02-26T04:37:08.470Z,0.23
2023-02-26T04:38:08.454Z,0.21
2023-02-26T04:39:08.439Z,0.15
2023-02-26T04:40:08.438Z,0.10
2023-02-26T04:41:08.435Z,0.09
2023-02-26T04:42:08.418Z,0.13
2023-02-26T04:43:08.389Z,0.10
2023-02-26T04:44:08.391Z,0.07
2023-02-26T04:45:08.385Z,0.18
2023-02-26T04:46:08.431Z,0.03
2023-02-26T04:47:08.344Z,0.12
2023-02-26T04:48:08.344Z,0.05
2023-02-26T04:49:08.320Z,0.13
2023-02-26T04:50:08.324Z,0.09
2023-02-26T04:51:08.336Z,0.09
2023-02-26T04:52:08.365Z,0.12
2023-02-26T04:54:32.260Z,0.10
2023-02-26T04:56:24.091Z,0.07
2023-02-26T04:58:09.314Z,0.10
2023-02-26T04:59:53.479Z,0.06
2023-02-26T05:01:31.326Z,0.07
2023-02-26T05:03:16.003Z,0.09
2023-02-26T05:04:56.522Z,0.00
2023-02-26T05:06:37.042Z,0.02
2023-02-26T05:08:14.484Z,0.05
2023-02-26T05:09:51.971Z,0.12
2023-02-26T05:11:27.359Z,0.02
2023-02-26T05:13:02.133Z,0.00
2023-02-26T05:14:30.864Z,0.02
2023-02-26T05:16:01.772Z,0.03
2023-02-26T05:17:29.202Z,0.03
2023-02-26T05:18:58.203Z,0.05
2023-02-26T05:20:24.803Z,-0.06
2023-02-26T05:21:51.406Z,-0.05
2023-02-26T05:23:15.258Z,-0.01
2023-02-26T05:24:43.069Z,-0.06
2023-02-26T05:26:03.601Z,-0.08
2023-02-26T05:27:28.707Z,-0.08
2023-02-26T05:28:49.221Z,-0.08
2023-02-26T05:30:12.788Z,-0.08
2023-02-26T05:31:24.017Z,-0.11
2023-02-26T05:32:39.983Z,-0.15
2023-02-26T05:33:49.320Z,-0.08
2023-02-26T05:35:06.543Z,-0.04
2023-02-26T05:36:15.256Z,0.02
2023-02-26T05:37:28.868Z,-0.05
2023-02-26T05:38:38.507Z,-0.11
2023-02-26T05:39:53.602Z,0.12
2023-02-26T05:41:00.540Z,0.12
2023-02-26T05:42:16.231Z,0.06
2023-02-26T05:43:23.143Z,0.18
2023-02-26T05:44:37.941Z,-0.01
2023-02-26T05:45:44.593Z,0.10
2023-02-26T05:46:59.088Z,0.15
2023-02-26T05:48:03.285Z,0.15
2023-02-26T05:49:18.410Z,0.06
2023-02-26T05:50:19.261Z,0.10
2023-02-26T05:51:31.665Z,0.06
2023-02-26T05:52:27.047Z,0.15
2023-02-26T05:53:39.765Z,0.03
2023-02-26T05:54:24.566Z,0.00
2023-02-26T05:55:36.634Z,0.02
2023-02-26T05:56:28.727Z,0.00
2023-02-26T05:57:39.591Z,0.00
2023-02-26T05:58:20.773Z,-0.09
2023-02-26T05:59:22.547Z,0.02
2023-02-26T06:00:06.769Z,-0.04
2023-02-26T06:01:10.364Z,-0.01
2023-02-26T06:01:49.782Z,-0.08
2023-02-26T06:02:53.644Z,0.07
2023-02-26T06:03:42.372Z,-0.01
2023-02-26T06:04:42.381Z,0.00
2023-02-26T06:05:42.356Z,-0.09
2023-02-26T06:06:42.345Z,-0.04
2023-02-26T06:07:42.340Z,0.03
2023-02-26T06:08:42.360Z,-0.05
2023-02-26T06:09:42.323Z,-0.09
2023-02-26T06:10:42.297Z,-0.08
2023-02-26T06:11:42.298Z,-0.05
2023-02-26T06:12:42.274Z,0.02
2023-02-26T06:13:42.272Z,-0.08
2023-02-26T06:14:42.336Z,-0.08
2023-02-26T06:15:42.258Z,-0.11
2023-02-26T06:16:42.338Z,-0.15
2023-02-26T06:17:42.233Z,-0.09
2023-02-26T06:18:42.230Z,-0.26
2023-02-26T06:19:42.224Z,-0.18
2023-02-26T06:20:42.197Z,-0.19
2023-02-26T06:21:42.169Z,-0.12
2023-02-26T06:22:42.162Z,-0.09
2023-02-26T06:23:42.163Z,-0.24
2023-02-26T06:24:42.176Z,-0.18
2023-02-26T06:25:42.145Z,-0.08
2023-02-26T06:26:42.117Z,-0.16
2023-02-26T06:27:42.128Z,-0.12
2023-02-26T06:28:42.137Z,-0.15
2023-02-26T06:29:42.094Z,-0.19
2023-02-26T06:30:42.190Z,-0.12
2023-02-26T06:31:42.161Z,-0.19
2023-02-26T06:32:42.148Z,-0.16
2023-02-26T06:33:42.038Z,-0.26
2023-02-26T06:34:42.039Z,-0.19
2023-02-26T06:35:42.046Z,-0.37
2023-02-26T06:36:42.023Z,-0.29
2023-02-26T06:37:42.021Z,-0.23
2023-02-26T06:38:42.000Z,-0.29
2023-02-26T06:39:42.000Z,-0.27
2023-02-26T06:40:42.018Z,-0.33
2023-02-26T06:41:41.973Z,-0.19
2023-02-26T06:42:41.962Z,-0.27
2023-02-26T06:43:41.973Z,-0.19
2023-02-26T06:44:41.919Z,-0.29
2023-02-26T06:45:41.952Z,-0.27
2023-02-26T06:46:41.927Z,-0.15
2023-02-26T06:47:41.901Z,-0.23
2023-02-26T06:48:41.881Z,-0.30
2023-02-26T06:49:41.882Z,-0.27
2023-02-26T06:50:41.871Z,-0.24
2023-02-26T06:51:41.875Z,-0.16
2023-02-26T06:52:41.844Z,-0.15
2023-02-26T06:53:41.837Z,-0.18
2023-02-26T06:54:41.813Z,-0.15
2023-02-26T06:55:41.806Z,-0.13
2023-02-26T06:56:41.828Z,-0.13
2023-02-26T06:57:41.812Z,-0.15
2023-02-26T06:58:41.779Z,-0.12
2023-02-26T06:59:41.852Z,-0.18
2023-02-26T07:00:41.758Z,-0.09
2023-02-26T07:01:41.749Z,-0.09
2023-02-26T07:02:41.822Z,-0.06
2023-02-26T07:03:41.737Z,0.03
2023-02-26T07:04:41.712Z,0.07
2023-02-26T07:05:41.710Z,0.03
2023-02-26T07:06:42.038Z,-0.06
2023-02-26T07:07:41.689Z,0.07
2023-02-26T07:08:41.670Z,0.06
2023-02-26T07:09:41.666Z,0.05
2023-02-26T07:10:41.654Z,0.05
2023-02-26T07:11:41.636Z,0.07
2023-02-26T07:12:41.645Z,-0.04
2023-02-26T07:13:41.629Z,0.13
2023-02-26T07:14:41.592Z,0.07
2023-02-26T07:15:41.582Z,0.03
2023-02-26T07:16:41.617Z,0.10
2023-02-26T07:17:41.570Z,0.16
2023-02-26T07:18:41.566Z,0.07
2023-02-26T07:19:41.546Z,0.13
2023-02-26T07:20:41.518Z,0.15
2023-02-26T07:21:41.527Z,0.16
2023-02-26T07:22:41.497Z,0.06
2023-02-26T07:23:41.507Z,0.12
2023-02-26T07:24:41.502Z,0.21
2023-02-26T07:25:41.481Z,0.28
2023-02-26T07:26:41.453Z,0.23
2023-02-26T07:27:43.736Z,0.34
2023-02-26T07:28:41.467Z,0.42
2023-02-26T07:29:41.454Z,0.61
2023-02-26T07:30:41.549Z,0.64
2023-02-26T07:31:41.665Z,0.72
2023-02-26T07:32:41.419Z,0.79
2023-02-26T07:33:41.384Z,0.79
2023-02-26T07:34:41.380Z,0.82
2023-02-26T07:35:41.386Z,0.85
2023-02-26T07:36:41.342Z,1.00
2023-02-26T07:37:41.337Z,1.03
2023-02-26T07:38:41.336Z,0.92
2023-02-26T07:39:41.310Z,1.18
2023-02-26T07:40:41.311Z,1.19
2023-02-26T07:41:41.303Z,1.21
2023-02-26T07:42:41.271Z,1.33
2023-02-26T07:43:41.280Z,1.40
2023-02-26T07:44:41.288Z,1.47
2023-02-26T07:45:41.243Z,1.57
2023-02-26T07:46:41.238Z,1.69
2023-02-26T07:47:41.222Z,1.82
2023-02-26T07:48:41.219Z,1.91
2023-02-26T07:49:41.223Z,1.90
2023-02-26T07:50:41.187Z,1.98
2023-02-26T07:51:41.187Z,2.12
2023-02-26T07:52:41.172Z,2.26
2023-02-26T07:53:41.163Z,2.27
2023-02-26T07:54:41.148Z,2.40
2023-02-26T07:55:41.150Z,2.40
2023-02-26T07:56:41.127Z,2.55
2023-02-26T07:57:41.133Z,2.56
2023-02-26T07:58:41.094Z,2.56
2023-02-26T07:59:41.098Z,2.61
2023-02-26T08:00:41.105Z,2.64
2023-02-26T08:01:41.162Z,2.67
2023-02-26T08:02:41.048Z,2.64
2023-02-26T08:03:41.070Z,2.70
2023-02-26T08:04:41.037Z,2.79
2023-02-26T08:05:41.018Z,2.94
2023-02-26T08:06:41.004Z,3.02
2023-02-26T08:07:41.047Z,3.10
2023-02-26T08:08:41.013Z,3.28
2023-02-26T08:09:40.978Z,3.47
2023-02-26T08:10:42.110Z,3.44
2023-02-26T08:11:40.965Z,3.57
2023-02-26T08:12:40.961Z,3.62
2023-02-26T08:13:40.956Z,3.62
2023-02-26T08:14:40.928Z,3.76
2023-02-26T08:15:40.930Z,3.82
2023-02-26T08:16:40.935Z,3.85
2023-02-26T08:17:40.896Z,3.83
2023-02-26T08:18:40.903Z,3.79
2023-02-26T08:19:40.869Z,4.00
2023-02-26T08:20:40.867Z,4.18
2023-02-26T08:21:40.851Z,4.03
2023-02-26T08:22:40.834Z,4.21
2023-02-26T08:23:40.818Z,4.29
2023-02-26T08:24:40.834Z,4.40
2023-02-26T08:25:40.807Z,4.54
2023-02-26T08:26:40.784Z,4.51
2023-02-26T08:27:40.790Z,4.59
2023-02-26T08:28:40.756Z,4.69
2023-02-26T08:29:40.776Z,4.73
2023-02-26T08:30:40.792Z,4.89
2023-02-26T08:31:40.836Z,4.98
2023-02-26T08:32:40.798Z,5.12
2023-02-26T08:33:40.723Z,5.14
2023-02-26T08:34:40.704Z,5.16
2023-02-26T08:35:40.697Z,5.14
2023-02-26T08:36:40.685Z,5.22
2023-02-26T08:37:40.685Z,5.25
2023-02-26T08:38:40.667Z,5.31
2023-02-26T08:39:40.671Z,5.38
2023-02-26T08:40:40.632Z,5.50
2023-02-26T08:41:40.627Z,5.67
2023-02-26T08:42:40.607Z,5.53
2023-02-26T08:43:40.599Z,5.59
2023-02-26T08:44:40.592Z,5.59
2023-02-26T08:45:40.602Z,5.52
2023-02-26T08:46:40.639Z,5.55
2023-02-26T08:47:53.954Z,5.57
2023-02-26T08:48:41.551Z,5.59
2023-02-26T08:49:40.535Z,5.64
2023-02-26T08:50:40.535Z,5.63
2023-02-26T08:51:40.500Z,5.66
2023-02-26T08:52:40.498Z,5.63
2023-02-26T08:53:40.495Z,5.67
2023-02-26T08:54:40.486Z,5.57
2023-02-26T08:55:40.461Z,5.66
2023-02-26T08:56:40.454Z,5.71
2023-02-26T08:57:40.432Z,5.86
2023-02-26T08:58:40.434Z,5.77
2023-02-26T08:59:40.424Z,5.88
2023-02-26T09:00:40.396Z,5.85
2023-02-26T09:01:40.452Z,5.86
2023-02-26T09:02:40.457Z,5.86
2023-02-26T09:03:40.372Z,5.86
2023-02-26T09:04:40.375Z,5.91
2023-02-26T09:05:40.347Z,5.88
2023-02-26T09:06:40.346Z,6.00
2023-02-26T09:07:40.324Z,6.01
2023-02-26T09:08:40.315Z,6.03
2023-02-26T09:09:40.324Z,6.14
2023-02-26T09:10:41.222Z,6.21
2023-02-26T09:11:40.294Z,6.44
2023-02-26T09:12:40.261Z,6.40
2023-02-26T09:13:40.268Z,6.65
2023-02-26T09:14:40.242Z,6.62
2023-02-26T09:15:40.251Z,6.81
2023-02-26T09:16:40.297Z,6.71
2023-02-26T09:17:40.229Z,6.66
2023-02-26T09:18:40.200Z,6.68
2023-02-26T09:19:40.212Z,6.68
2023-02-26T09:20:40.203Z,6.69
2023-02-26T09:21:40.178Z,6.87
2023-02-26T09:22:40.172Z,7.05
2023-02-26T09:23:40.162Z,7.05
2023-02-26T09:24:40.208Z,7.23
2023-02-26T09:25:40.136Z,7.53
2023-02-26T09:26:40.107Z,7.69
2023-02-26T09:27:40.119Z,7.94
2023-02-26T09:28:40.193Z,8.14
2023-02-26T09:29:40.090Z,8.26
2023-02-26T09:30:40.090Z,8.40
2023-02-26T09:31:40.732Z,8.51
2023-02-26T09:32:40.127Z,8.58
2023-02-26T09:33:40.051Z,8.60
2023-02-26T09:34:40.036Z,8.65
2023-02-26T09:35:40.009Z,8.73
2023-02-26T09:36:40.025Z,8.81
2023-02-26T09:37:39.987Z,8.87
2023-02-26T09:38:39.990Z,8.79
2023-02-26T09:39:40.006Z,8.57
2023-02-26T09:40:39.967Z,8.57
2023-02-26T09:41:40.059Z,8.65
2023-02-26T09:42:39.960Z,8.40
2023-02-26T09:43:39.976Z,8.26
2023-02-26T09:44:39.917Z,8.18
2023-02-26T09:45:39.958Z,8.11
2023-02-26T09:46:39.895Z,8.14
2023-02-26T09:47:39.897Z,8.15
2023-02-26T09:48:39.875Z,7.85
2023-02-26T09:49:39.852Z,7.85
2023-02-26T09:50:39.847Z,7.74
2023-02-26T09:51:39.830Z,7.74
2023-02-26T09:52:39.847Z,7.93
2023-02-26T09:53:39.820Z,8.07
2023-02-26T09:54:39.792Z,8.11
2023-02-26T09:55:39.802Z,8.08
2023-02-26T09:56:39.770Z,8.04
2023-02-26T09:57:39.787Z,8.17
2023-02-26T09:58:39.763Z,8.18
2023-02-26T09:59:39.768Z,8.25
2023-02-26T10:00:39.740Z,8.30
2023-02-26T10:01:39.787Z,8.26
2023-02-26T10:02:39.727Z,8.33
2023-02-26T10:03:39.759Z,8.36
2023-02-26T10:04:39.710Z,8.22
2023-02-26T10:05:39.687Z,8.08
2023-02-26T10:06:39.668Z,7.99
2023-02-26T10:07:39.665Z,8.22
2023-02-26T10:08:39.666Z,8.29
2023-02-26T10:09:39.657Z,8.45
2023-02-26T10:10:39.619Z,8.53
2023-02-26T10:11:39.621Z,8.47
2023-02-26T10:12:39.606Z,8.44
2023-02-26T10:13:56.089Z,8.53
2023-02-26T10:14:40.600Z,8.47
2023-02-26T10:15:39.609Z,8.47
2023-02-26T10:16:39.622Z,8.28
2023-02-26T10:17:39.540Z,8.04
2023-02-26T10:18:39.525Z,7.85
2023-02-26T10:19:39.530Z,7.84
2023-02-26T10:20:39.613Z,8.08
2023-02-26T10:21:39.502Z,8.18
2023-02-26T10:22:39.495Z,8.37
2023-02-26T10:23:39.617Z,8.45
2023-02-26T10:24:39.498Z,8.75
2023-02-26T10:25:39.464Z,8.76
2023-02-26T10:26:39.646Z,9.04
2023-02-26T10:27:39.441Z,8.93
2023-02-26T10:28:39.432Z,8.54
2023-02-26T10:29:39.423Z,8.20
2023-02-26T10:30:39.507Z,7.79
2023-02-26T10:31:39.431Z,7.55
2023-02-26T10:32:39.478Z,7.26
2023-02-26T10:33:39.368Z,6.99
2023-02-26T10:34:39.413Z,6.76
2023-02-26T10:35:39.347Z,6.94
2023-02-26T10:36:39.323Z,6.69
2023-02-26T10:37:39.334Z,6.44
2023-02-26T10:38:39.312Z,6.54
2023-02-26T10:39:39.288Z,6.72
2023-02-26T10:40:39.321Z,6.91
2023-02-26T10:41:39.374Z,7.16
2023-02-26T10:42:39.264Z,7.45
2023-02-26T10:43:39.254Z,7.56
2023-02-26T10:44:39.240Z,7.59
2023-02-26T10:45:39.275Z,7.63
2023-02-26T10:46:39.208Z,7.84
2023-02-26T10:47:39.233Z,7.84
2023-02-26T10:48:39.197Z,8.03
2023-02-26T10:49:39.181Z,8.25
2023-02-26T10:50:39.177Z,8.39
2023-02-26T10:51:39.147Z,8.44
2023-02-26T10:52:39.145Z,8.57
2023-02-26T10:53:40.664Z,8.50
2023-02-26T10:54:39.153Z,8.53
2023-02-26T10:55:39.340Z,8.63
2023-02-26T10:56:39.130Z,8.57
2023-02-26T10:57:39.171Z,8.66
2023-02-26T10:58:39.153Z,8.75
2023-02-26T10:59:39.068Z,8.69
2023-02-26T11:00:39.067Z,8.73
2023-02-26T11:01:39.096Z,8.39
2023-02-26T11:02:39.129Z,8.10
2023-02-26T11:03:39.063Z,8.00
2023-02-26T11:04:39.028Z,7.79
2023-02-26T11:05:38.992Z,7.47
2023-02-26T11:06:38.998Z,7.26
2023-02-26T11:07:38.982Z,6.83
2023-02-26T11:08:38.992Z,6.63
2023-02-26T11:09:38.963Z,6.40
2023-02-26T11:10:38.978Z,6.30
2023-02-26T11:11:38.939Z,6.18
2023-02-26T11:12:38.946Z,6.04
2023-02-26T11:13:38.916Z,5.98
2023-02-26T11:14:38.905Z,5.92
2023-02-26T11:15:38.892Z,5.78
2023-02-26T11:16:38.893Z,5.82
2023-02-26T11:17:38.873Z,5.71
2023-02-26T11:18:38.878Z,5.74
2023-02-26T11:19:38.842Z,5.81
2023-02-26T11:20:38.847Z,5.71
2023-02-26T11:21:38.835Z,5.77
2023-02-26T11:22:38.898Z,5.70
2023-02-26T11:23:38.814Z,5.46
2023-02-26T11:24:38.814Z,5.49
2023-02-26T11:25:38.788Z,5.46
2023-02-26T11:26:38.779Z,5.45
2023-02-26T11:27:38.780Z,5.45
2023-02-26T11:28:38.786Z,5.35
2023-02-26T11:29:38.785Z,5.19
2023-02-26T11:30:38.783Z,5.34
2023-02-26T11:31:41.053Z,5.37
2023-02-26T11:32:38.728Z,5.20
2023-02-26T11:33:38.685Z,5.27
2023-02-26T11:34:38.806Z,5.16
2023-02-26T11:35:38.666Z,5.19
2023-02-26T11:36:38.743Z,5.31
2023-02-26T11:37:38.657Z,5.20
2023-02-26T11:38:38.645Z,5.22
2023-02-26T11:39:38.645Z,5.23
2023-02-26T11:40:38.612Z,5.20
2023-02-26T11:41:38.611Z,5.23
2023-02-26T11:42:38.585Z,5.17
2023-02-26T11:43:38.579Z,5.17
2023-02-26T11:44:38.620Z,5.25
2023-02-26T11:45:38.558Z,5.23
2023-02-26T11:46:38.552Z,5.09
2023-02-26T11:47:38.538Z,5.27
2023-02-26T11:48:38.529Z,5.23
2023-02-26T11:49:38.633Z,5.19
2023-02-26T11:50:38.517Z,5.25
2023-02-26T11:51:38.482Z,5.12
2023-02-26T11:52:38.484Z,5.16
2023-02-26T11:53:38.522Z,5.13
2023-02-26T11:54:38.463Z,5.19
2023-02-26T11:55:38.451Z,5.23
2023-02-26T11:56:38.425Z,5.05
2023-02-26T11:57:38.422Z,5.04
2023-02-26T11:58:38.416Z,5.01
2023-02-26T11:59:38.405Z,4.94
2023-02-26T12:00:38.413Z,5.12
2023-02-26T12:01:38.370Z,5.35
2023-02-26T12:02:38.409Z,5.57
2023-02-26T12:03:38.371Z,5.91
2023-02-26T12:04:38.344Z,6.36
2023-02-26T12:05:38.350Z,6.73
2023-02-26T12:06:38.322Z,6.97
2023-02-26T12:07:38.307Z,7.37
2023-02-26T12:08:38.365Z,7.78
2023-02-26T12:09:38.275Z,8.07
2023-02-26T12:10:38.299Z,8.21
2023-02-26T12:11:38.261Z,8.33
2023-02-26T12:12:38.244Z,8.37
2023-02-26T12:13:38.240Z,8.48
2023-02-26T12:14:38.217Z,8.76
2023-02-26T12:15:38.250Z,8.94
2023-02-26T12:16:38.241Z,9.02
2023-02-26T12:17:38.208Z,8.88
2023-02-26T12:18:38.193Z,8.68
2023-02-26T12:19:38.177Z,8.15
2023-02-26T12:20:38.168Z,8.10
2023-02-26T12:21:38.166Z,7.69
2023-02-26T12:22:38.128Z,7.49
2023-02-26T12:23:38.110Z,7.13
2023-02-26T12:24:38.118Z,7.09
2023-02-26T12:25:38.113Z,6.97
2023-02-26T12:26:38.081Z,6.83
2023-02-26T12:27:38.095Z,6.77
2023-02-26T12:28:38.060Z,6.81
2023-02-26T12:29:38.055Z,6.72
2023-02-26T12:30:38.120Z,6.73
2023-02-26T12:31:38.141Z,6.84
2023-02-26T12:32:38.146Z,6.84
2023-02-26T12:33:38.014Z,6.97
2023-02-26T12:34:38.002Z,7.20
2023-02-26T12:35:37.987Z,7.32
2023-02-26T12:36:48.499Z,7.16
2023-02-26T12:37:38.990Z,7.08
2023-02-26T12:38:37.990Z,6.89
2023-02-26T12:39:37.941Z,6.90
2023-02-26T12:40:37.940Z,6.77
2023-02-26T12:41:37.932Z,6.58
2023-02-26T12:42:37.952Z,6.63
2023-02-26T12:43:37.896Z,6.73
2023-02-26T12:44:37.901Z,6.90
2023-02-26T12:45:37.891Z,7.15
2023-02-26T12:46:37.916Z,7.50
2023-02-26T12:47:37.861Z,7.58
2023-02-26T12:48:37.876Z,8.00
2023-02-26T12:49:37.843Z,8.20
2023-02-26T12:50:37.820Z,8.30
2023-02-26T12:51:37.817Z,8.40
2023-02-26T12:52:37.833Z,8.54
2023-02-26T12:53:37.784Z,8.54
2023-02-26T12:54:37.799Z,8.50
2023-02-26T12:55:37.763Z,8.66
2023-02-26T12:56:37.770Z,8.62
2023-02-26T12:57:37.758Z,8.62
2023-02-26T12:58:37.765Z,8.75
2023-02-26T12:59:37.735Z,8.76
2023-02-26T13:00:37.784Z,8.91
2023-02-26T13:01:37.693Z,8.91
2023-02-26T13:02:37.700Z,9.02
2023-02-26T13:03:37.729Z,9.13
2023-02-26T13:04:37.687Z,9.34
2023-02-26T13:05:37.648Z,9.38
2023-02-26T13:06:37.642Z,9.34
2023-02-26T13:07:37.627Z,9.24
2023-02-26T13:08:37.660Z,9.20
2023-02-26T13:09:37.606Z,9.28
2023-02-26T13:10:37.612Z,9.16
2023-02-26T13:11:37.595Z,9.01
2023-02-26T13:12:37.589Z,8.93
2023-02-26T13:13:37.587Z,9.04
2023-02-26T13:14:37.553Z,8.93
2023-02-26T13:15:37.557Z,9.09
2023-02-26T13:16:37.625Z,9.28
2023-02-26T13:17:37.621Z,9.50
2023-02-26T13:18:37.506Z,9.60
2023-02-26T13:19:37.512Z,9.53
2023-02-26T13:20:37.536Z,9.53
2023-02-26T13:21:37.491Z,9.67
2023-02-26T13:22:37.521Z,9.66
2023-02-26T13:23:37.504Z,9.70
2023-02-26T13:24:37.533Z,9.85
2023-02-26T13:25:37.531Z,9.91
2023-02-26T13:26:37.418Z,9.79
2023-02-26T13:27:37.410Z,9.76
2023-02-26T13:28:37.396Z,9.96
2023-02-26T13:29:37.401Z,9.83
2023-02-26T13:30:37.490Z,10.03
2023-02-26T13:31:37.427Z,9.94